Portada
METAR-TAF:

METAR-TAF

Aeroports :

Aeroport de Barcelona-El Prat

Barcelona, Espanya

latitud: 41-17N, longitud: 002-04E, altitud: 4 m

Observació

L'informe es va fer fa 40 minuts, a les 05:00 UTC
Vent 4 kt del Nord/Nord-Oest, variant entre Oest i Est
Temperatura 8°C
Humitat 81%
Pressió 1026 hPa
Visibilitat 10 km o més
Escasses núvols a una alçada de 4500 ft

METAR: LEBL 200500Z 33004KT 270V080 9999 FEW045 08/05 Q1026 NOSIG

Hora: 06:40 (05:40 UTC)

Pronòstic

L'informe es va fer fa 40 minuts, a les 05:00 UTC
Pronòstic vàlid del 20 a les 06 UTC al 21 a les 06 UTC
Vent 8 kt del Nord/Nord-Oest
Visibilitat 10 km o més
Escasses núvols a una alçada de 3000 ft
Evolucionant progressivament
l' 20 a les 09 UTC al 20 a les 11 UTC
Vent 10 kt del Est
Evolucionant progressivament
l' 20 a les 19 UTC al 20 a les 21 UTC
Vent 8 kt del Nord/Nord-Oest

TAF: LEBL 200500Z 2006/2106 34008KT 9999 FEW030 TX17/2012Z TN07/2006Z BECMG 2009/2011 10010KT BECMG 2019/2021 33008KT

Observacions i pronòstics meteorològics de més de 4000 aeroports (METAR i TAF).

Les estacions disponibles són els punts grocs i vermells al mapa.

Posi el ratolí al punt desitjat per veure el nom de l'estació.

Feu clic per veure les observacions i els pronòstics meteorològics.

Per canviar el mapa: feu clic els botons verds amb una creu de color negre per apropar; al botó verd amb un guió per allunyar la imatge; o en les fletxes verdes per a mapes adjacents.


METAR-TAF: